Celle Army, Germany

11:50 PM CET on December 22, 2014 (GMT +0100)
INIEDERS152 | Change Station
CLOSE
Current Station
Personal Weather Station
Location: Lachendorf, NIEDERSACHSEN
Elevation: 154 ft
Nearby Weather Stations

Elev 154 ft 52.62 °N, 10.24 °E | Updated 37 seconds ago

Light Rain
Light Rain
50.1 °F
Feels Like 50.1 °F
N
6.0
Wind Variable Wind from WNW
Gusts 9.0 mph

Today
High -- | Low -- °F
--% Chance of Precip.
Yesterday
High -- | Low -- °F
Precip. -- in
8:29 AM 4:07 PM
New Moon, 1% visible
Pressure 29.89 in
Visibility 4.3 miles
Clouds Mostly Cloudy 1400 ft
Dew Point 47 °F
Humidity 88%
Rainfall 0.35 in
Snow Depth Not available.
UV 0 out of 12
Pollen Not available.
Air Quality Not available.
Flu Activity Not available.
METAR EDDV 222220Z 25015G26KT 210V290 7000 -RA BKN014 11/10 Q1012

More Conditions Fewer Conditions

Pressure 29.89 in
Visibility 4.3 miles
Clouds Mostly Cloudy 1400 ft
Dew Point 47 °F
Humidity 88%
Rainfall 0.35 in
Snow Depth Not available.
UV 0 out of 12
Pollen Not available.
Air Quality Not available.
Flu Activity Not available.
METAR EDDV 222220Z 25015G26KT 210V290 7000 -RA BKN014 11/10 Q1012

More Conditions Fewer Conditions

10-Day Weather Forecast

Almanac

Astronomy

Dec. 22, 2014 Rise Set
Actual Time
Civil Twilight
Nautical Twilight
Astronomical Twilight
Moon
Length of Visible Light
Length of Day
Tomorrow will be .
, % of the Moon is Illuminated

Today's Extremes

Country Highs Country Lows

Community

WunderPhotos

Upload Photos

1,779,695 photos uploaded!

WunderBlogs® & News

Nearby

Air Quality

  Air Quality AQ Index Pollutant
Not available.

Snow Depth

Station Depth Elevation

Earthquake Activity

City Distance Mag. Time & Date
Minimum magnitude displayed is 2.5.

Coastal Water Temperatures

Place Temperature

Nearby Weather Stations